createdAt,value
2022-12-17T00:01:58.070Z,-5.50
2022-12-17T00:04:43.100Z,-5.50
2022-12-17T00:07:30.974Z,-5.60
2022-12-17T00:10:16.363Z,-5.70
2022-12-17T00:13:01.580Z,-5.70
2022-12-17T00:15:47.003Z,-5.60
2022-12-17T00:18:32.220Z,-5.70
2022-12-17T00:21:19.856Z,-5.70
2022-12-17T00:24:05.424Z,-5.80
2022-12-17T00:26:50.834Z,-5.90
2022-12-17T00:29:37.207Z,-5.90
2022-12-17T00:32:22.823Z,-5.80
2022-12-17T00:35:08.185Z,-5.80
2022-12-17T00:37:56.185Z,-5.80
2022-12-17T00:40:58.452Z,-5.80
2022-12-17T00:43:46.049Z,-5.80
2022-12-17T00:51:47.171Z,-5.90
2022-12-17T00:54:32.636Z,-5.90
2022-12-17T00:57:17.706Z,-6.00
2022-12-17T01:00:02.850Z,-6.00
2022-12-17T01:02:47.828Z,-6.10
2022-12-17T01:05:33.031Z,-6.20
2022-12-17T01:08:38.359Z,-6.30
2022-12-17T01:11:26.630Z,-6.30
2022-12-17T01:14:11.981Z,-6.40
2022-12-17T01:16:57.690Z,-6.40
2022-12-17T01:19:42.734Z,-6.40
2022-12-17T01:22:28.060Z,-6.30
2022-12-17T01:25:13.113Z,-6.30
2022-12-17T01:27:58.236Z,-6.30
2022-12-17T01:30:43.808Z,-6.30
2022-12-17T01:33:29.410Z,-6.20
2022-12-17T01:36:14.947Z,-6.20
2022-12-17T01:39:00.205Z,-6.10
2022-12-17T01:41:45.623Z,-6.10
2022-12-17T01:44:49.667Z,-6.10
2022-12-17T01:47:35.516Z,-6.10
2022-12-17T01:50:20.865Z,-6.20
2022-12-17T01:53:06.480Z,-6.20
2022-12-17T01:55:51.849Z,-6.20
2022-12-17T01:58:37.221Z,-6.20
2022-12-17T02:01:22.403Z,-6.20
2022-12-17T02:04:10.134Z,-6.20
2022-12-17T02:06:56.699Z,-6.30
2022-12-17T02:09:49.695Z,-6.30
2022-12-17T02:12:37.067Z,-6.20
2022-12-17T02:15:26.896Z,-6.30
2022-12-17T02:18:13.745Z,-6.30
2022-12-17T02:21:01.828Z,-6.30
2022-12-17T02:23:56.823Z,-6.30
2022-12-17T02:26:54.459Z,-6.30
2022-12-17T02:29:41.107Z,-6.20
2022-12-17T02:32:26.950Z,-6.20
2022-12-17T02:35:14.785Z,-6.20
2022-12-17T02:38:05.107Z,-6.20
2022-12-17T02:40:51.906Z,-6.20
2022-12-17T02:43:37.979Z,-6.20
2022-12-17T02:46:23.889Z,-6.20
2022-12-17T02:49:09.129Z,-6.20
2022-12-17T02:51:54.324Z,-6.20
2022-12-17T02:54:39.696Z,-6.10
2022-12-17T02:57:27.393Z,-6.10
2022-12-17T03:00:12.451Z,-6.10
2022-12-17T03:02:58.079Z,-6.10
2022-12-17T03:05:45.620Z,-6.00
2022-12-17T03:08:31.809Z,-6.10
2022-12-17T03:11:17.259Z,-6.10
2022-12-17T03:14:02.536Z,-6.10
2022-12-17T03:16:48.169Z,-6.00
2022-12-17T03:19:33.362Z,-5.90
2022-12-17T03:22:18.607Z,-5.90
2022-12-17T03:25:03.784Z,-5.90
2022-12-17T03:27:49.000Z,-5.90
2022-12-17T03:30:36.206Z,-5.90
2022-12-17T03:33:22.277Z,-5.80
2022-12-17T03:36:07.338Z,-5.80
2022-12-17T03:38:52.817Z,-5.80
2022-12-17T03:41:38.136Z,-5.80
2022-12-17T03:44:23.155Z,-5.90
2022-12-17T03:47:08.446Z,-5.90
2022-12-17T03:49:53.847Z,-5.80
2022-12-17T03:52:38.903Z,-5.80
2022-12-17T03:55:24.130Z,-5.70
2022-12-17T03:58:09.595Z,-5.80
2022-12-17T04:00:54.643Z,-5.80
2022-12-17T04:03:40.305Z,-5.80
2022-12-17T04:06:25.901Z,-5.70
2022-12-17T04:09:11.177Z,-5.70
2022-12-17T04:11:59.117Z,-5.60
2022-12-17T04:14:44.383Z,-5.60
2022-12-17T04:17:29.553Z,-5.60
2022-12-17T04:20:14.597Z,-5.60
2022-12-17T04:22:59.770Z,-5.60
2022-12-17T04:25:45.146Z,-5.60
2022-12-17T04:28:30.174Z,-5.60
2022-12-17T04:31:15.526Z,-5.50
2022-12-17T04:34:00.483Z,-5.50
2022-12-17T04:36:45.551Z,-5.40
2022-12-17T04:39:30.911Z,-5.40
2022-12-17T04:42:16.330Z,-5.40
2022-12-17T04:45:07.159Z,-5.40
2022-12-17T04:47:52.565Z,-5.30
2022-12-17T04:50:37.896Z,-5.30
2022-12-17T04:53:25.631Z,-5.30
2022-12-17T04:56:13.294Z,-5.20
2022-12-17T04:58:58.665Z,-5.20
2022-12-17T05:01:44.239Z,-5.20
2022-12-17T05:04:29.575Z,-5.20
2022-12-17T05:07:14.843Z,-5.20
2022-12-17T05:10:00.379Z,-5.10
2022-12-17T05:12:45.497Z,-5.10
2022-12-17T05:15:33.541Z,-5.10
2022-12-17T05:18:25.996Z,-5.10
2022-12-17T05:21:11.557Z,-5.10
2022-12-17T05:23:56.848Z,-5.10
2022-12-17T05:26:43.728Z,-5.10
2022-12-17T05:29:29.243Z,-5.00
2022-12-17T05:32:14.308Z,-5.00
2022-12-17T05:34:59.848Z,-5.00
2022-12-17T05:37:45.051Z,-5.00
2022-12-17T05:40:30.165Z,-5.00
2022-12-17T05:43:15.405Z,-5.00
2022-12-17T05:46:03.605Z,-4.90
2022-12-17T05:48:49.283Z,-4.90
2022-12-17T05:51:38.432Z,-4.90
2022-12-17T05:54:24.498Z,-4.80
2022-12-17T05:57:09.481Z,-4.80
2022-12-17T05:59:54.621Z,-4.90
2022-12-17T06:02:40.130Z,-4.90
2022-12-17T06:05:25.413Z,-4.80
2022-12-17T06:08:10.502Z,-4.90
2022-12-17T06:10:55.918Z,-4.80
2022-12-17T06:13:41.338Z,-4.80
2022-12-17T06:16:26.586Z,-4.80
2022-12-17T06:19:11.920Z,-4.80
2022-12-17T06:21:56.992Z,-4.80
2022-12-17T06:24:45.947Z,-4.80
2022-12-17T06:27:31.684Z,-4.70
2022-12-17T06:30:18.830Z,-4.70
2022-12-17T06:33:04.695Z,-4.70
2022-12-17T06:35:50.014Z,-4.60
2022-12-17T06:38:35.504Z,-4.60
2022-12-17T06:41:20.982Z,-4.60
2022-12-17T06:44:06.646Z,-4.60
2022-12-17T06:46:52.069Z,-4.60
2022-12-17T06:49:37.451Z,-4.50
2022-12-17T06:52:22.557Z,-4.50
2022-12-17T06:55:07.872Z,-4.50
2022-12-17T06:57:53.253Z,-4.50
2022-12-17T07:00:38.437Z,-4.40
2022-12-17T07:03:23.920Z,-4.50
2022-12-17T07:06:09.201Z,-4.50
2022-12-17T07:08:54.197Z,-4.60
2022-12-17T07:11:39.526Z,-4.60
2022-12-17T07:14:24.836Z,-4.50
2022-12-17T07:17:10.172Z,-4.60
2022-12-17T07:19:55.434Z,-4.50
2022-12-17T07:22:48.175Z,-4.50
2022-12-17T07:25:33.531Z,-4.50
2022-12-17T07:28:18.612Z,-4.50
2022-12-17T07:31:03.925Z,-4.50
2022-12-17T07:33:49.208Z,-4.40
2022-12-17T07:36:34.188Z,-4.40
2022-12-17T07:39:19.566Z,-4.30
2022-12-17T07:42:12.466Z,-4.40
2022-12-17T07:44:57.514Z,-4.40
2022-12-17T07:47:42.883Z,-4.40
2022-12-17T07:50:28.253Z,-4.40
2022-12-17T07:53:22.876Z,-4.50
2022-12-17T07:56:08.333Z,-4.40
2022-12-17T07:58:53.615Z,-4.40
2022-12-17T08:01:39.218Z,-4.50
2022-12-17T08:04:24.573Z,-4.40
2022-12-17T08:07:14.166Z,-4.40
2022-12-17T08:09:59.715Z,-4.50
2022-12-17T08:12:44.713Z,-4.40
2022-12-17T08:15:30.167Z,-4.40
2022-12-17T08:18:26.522Z,-4.40
2022-12-17T08:21:12.875Z,-4.40
2022-12-17T08:23:57.842Z,-4.40
2022-12-17T08:26:47.595Z,-4.40
2022-12-17T08:29:35.944Z,-4.30
2022-12-17T08:32:21.147Z,-4.30
2022-12-17T08:35:06.362Z,-4.30
2022-12-17T08:37:51.838Z,-4.20
2022-12-17T08:40:36.869Z,-4.20
2022-12-17T08:43:21.946Z,-4.20
2022-12-17T08:46:21.545Z,-4.20
2022-12-17T08:49:06.638Z,-4.20
2022-12-17T08:51:54.589Z,-4.30
2022-12-17T08:54:39.768Z,-4.40
2022-12-17T08:57:31.912Z,-4.40
2022-12-17T09:00:23.787Z,-4.30
2022-12-17T09:03:14.619Z,-4.30
2022-12-17T09:05:59.821Z,-4.30
2022-12-17T09:08:44.803Z,-4.20
2022-12-17T09:11:30.278Z,-4.40
2022-12-17T09:14:18.490Z,-4.50
2022-12-17T09:17:03.615Z,-4.40
2022-12-17T09:19:49.093Z,-4.30
2022-12-17T09:22:36.875Z,-4.20
2022-12-17T09:25:21.979Z,-4.20
2022-12-17T09:28:07.045Z,-4.20
2022-12-17T09:30:54.964Z,-4.20
2022-12-17T09:33:42.773Z,-4.20
2022-12-17T09:36:27.984Z,-4.20
2022-12-17T09:39:13.222Z,-4.10
2022-12-17T09:42:12.775Z,-4.20
2022-12-17T09:44:57.803Z,-4.10
2022-12-17T09:47:43.093Z,-4.00
2022-12-17T09:50:32.266Z,-4.00
2022-12-17T09:53:33.386Z,-3.90
2022-12-17T09:56:18.571Z,-3.90
2022-12-17T09:59:03.951Z,-3.90
2022-12-17T10:01:53.369Z,-3.80
2022-12-17T10:04:58.749Z,-3.80
2022-12-17T10:07:49.661Z,-3.80
2022-12-17T10:10:39.333Z,-4.00
2022-12-17T10:13:35.082Z,-4.00
2022-12-17T10:16:20.503Z,-4.00
2022-12-17T10:19:06.141Z,-3.90
2022-12-17T10:21:52.907Z,-3.80
2022-12-17T10:24:38.005Z,-3.70
2022-12-17T10:27:33.895Z,-3.70
2022-12-17T10:30:19.219Z,-3.60
2022-12-17T10:33:13.092Z,-3.60
2022-12-17T10:36:00.837Z,-3.60
2022-12-17T10:38:47.177Z,-3.60
2022-12-17T10:41:38.375Z,-3.60
2022-12-17T10:44:38.109Z,-3.60
2022-12-17T10:47:23.515Z,-3.50
2022-12-17T10:50:17.450Z,-3.50
2022-12-17T10:53:03.573Z,-3.50
2022-12-17T10:55:52.028Z,-3.60
2022-12-17T10:58:37.409Z,-3.50
2022-12-17T11:01:23.182Z,-3.50
2022-12-17T11:04:10.251Z,-3.50
2022-12-17T11:06:57.016Z,-3.50
2022-12-17T11:10:07.024Z,-3.40
2022-12-17T11:12:59.999Z,-3.40
2022-12-17T11:15:49.911Z,-3.40
2022-12-17T11:18:41.264Z,-3.30
2022-12-17T11:21:29.787Z,-3.30
2022-12-17T11:24:22.008Z,-3.30
2022-12-17T11:27:10.310Z,-3.30
2022-12-17T11:29:55.632Z,-3.30
2022-12-17T11:32:56.698Z,-3.30
2022-12-17T11:36:04.560Z,-3.20
2022-12-17T11:38:52.746Z,-3.20
2022-12-17T11:41:41.319Z,-3.20
2022-12-17T11:44:46.129Z,-3.20
2022-12-17T11:47:38.487Z,-3.10
2022-12-17T11:50:33.095Z,-3.10
2022-12-17T11:53:21.643Z,-3.10
2022-12-17T11:56:09.731Z,-3.20
2022-12-17T11:58:59.300Z,-3.20
2022-12-17T12:02:00.188Z,-3.20
2022-12-17T12:04:55.278Z,-3.10
2022-12-17T12:07:50.252Z,-3.10
2022-12-17T12:10:38.916Z,-3.10
2022-12-17T12:13:43.081Z,-3.10
2022-12-17T12:16:37.087Z,-3.10
2022-12-17T12:19:40.274Z,-3.10
2022-12-17T12:22:52.026Z,-3.10
2022-12-17T12:25:40.499Z,-3.10
2022-12-17T12:28:51.762Z,-3.10
2022-12-17T12:31:43.308Z,-3.00
2022-12-17T12:34:33.085Z,-3.00
2022-12-17T12:37:19.702Z,-2.90
2022-12-17T12:40:24.940Z,-3.00
2022-12-17T12:43:14.628Z,-3.00
2022-12-17T12:46:26.313Z,-3.00
2022-12-17T12:49:22.836Z,-3.00
2022-12-17T12:52:09.600Z,-3.00
2022-12-17T12:55:04.124Z,-3.00
2022-12-17T12:57:53.174Z,-2.90
2022-12-17T13:00:58.849Z,-2.90
2022-12-17T13:03:44.291Z,-2.90
2022-12-17T13:06:11.803Z,-2.90
2022-12-17T13:08:41.288Z,-2.90
2022-12-17T13:11:27.662Z,-2.80
2022-12-17T13:13:58.394Z,-2.80
2022-12-17T13:16:37.717Z,-2.80
2022-12-17T13:19:19.875Z,-2.80
2022-12-17T13:21:46.924Z,-3.00
2022-12-17T13:24:25.717Z,-3.00
2022-12-17T13:26:52.491Z,-2.90
2022-12-17T13:29:29.790Z,-3.00
2022-12-17T13:32:02.854Z,-3.10
2022-12-17T13:34:45.768Z,-3.10
2022-12-17T13:37:12.340Z,-3.10
2022-12-17T13:39:57.068Z,-3.10
2022-12-17T13:42:23.658Z,-3.20
2022-12-17T13:44:56.115Z,-3.20
2022-12-17T13:47:24.721Z,-3.20
2022-12-17T13:50:17.084Z,-3.20
2022-12-17T13:52:39.270Z,-3.10
2022-12-17T13:55:10.103Z,-3.00
2022-12-17T13:57:37.715Z,-3.20
2022-12-17T14:00:07.345Z,-3.20
2022-12-17T14:02:37.258Z,-3.10
2022-12-17T14:05:07.962Z,-3.10
2022-12-17T14:07:38.039Z,-3.00
2022-12-17T14:10:05.673Z,-3.00
2022-12-17T14:12:35.164Z,-2.90
2022-12-17T14:15:08.418Z,-2.90
2022-12-17T14:17:37.290Z,-2.90
2022-12-17T14:20:06.739Z,-2.90
2022-12-17T14:22:43.853Z,-2.90
2022-12-17T14:25:22.345Z,-2.90
2022-12-17T14:27:55.476Z,-2.90
2022-12-17T14:30:33.521Z,-2.80
2022-12-17T14:33:00.272Z,-2.80
2022-12-17T14:35:30.217Z,-2.90
2022-12-17T14:37:57.356Z,-3.00
2022-12-17T14:40:25.076Z,-3.10
2022-12-17T14:42:52.484Z,-3.10
2022-12-17T14:45:19.027Z,-3.20
2022-12-17T14:47:58.861Z,-3.40
2022-12-17T14:50:29.322Z,-3.40
2022-12-17T14:52:59.218Z,-3.40
2022-12-17T14:55:33.633Z,-3.40
2022-12-17T14:58:29.655Z,-3.40
2022-12-17T15:00:56.430Z,-3.40
2022-12-17T15:03:25.926Z,-3.30
2022-12-17T15:05:55.124Z,-3.20
2022-12-17T15:08:24.217Z,-3.20
2022-12-17T15:10:50.868Z,-3.10
2022-12-17T15:13:19.951Z,-3.10
2022-12-17T15:15:48.993Z,-3.10
2022-12-17T15:18:17.832Z,-3.20
2022-12-17T15:20:44.658Z,-3.40
2022-12-17T15:23:19.036Z,-3.60
2022-12-17T15:25:49.334Z,-3.60
2022-12-17T15:28:17.035Z,-3.50
2022-12-17T15:30:43.944Z,-3.40
2022-12-17T15:33:10.654Z,-3.30
2022-12-17T15:35:37.950Z,-3.30
2022-12-17T15:38:05.220Z,-3.30
2022-12-17T15:40:32.069Z,-3.20
2022-12-17T15:43:11.092Z,-3.30
2022-12-17T15:45:41.803Z,-3.30
2022-12-17T15:48:11.570Z,-3.30
2022-12-17T15:50:38.482Z,-3.50
2022-12-17T15:53:05.303Z,-3.50
2022-12-17T15:55:32.390Z,-3.50
2022-12-17T15:57:58.965Z,-3.40
2022-12-17T16:00:25.530Z,-3.30
2022-12-17T16:02:54.654Z,-3.30
2022-12-17T16:05:22.096Z,-3.40
2022-12-17T16:07:49.130Z,-3.40
2022-12-17T16:10:15.827Z,-3.40
2022-12-17T16:12:42.479Z,-3.50
2022-12-17T16:15:09.964Z,-3.50
2022-12-17T16:17:36.542Z,-3.50
2022-12-17T16:20:03.953Z,-3.40
2022-12-17T16:22:30.513Z,-3.40
2022-12-17T16:24:57.318Z,-3.40
2022-12-17T16:27:23.959Z,-3.40
2022-12-17T16:29:50.525Z,-3.30
2022-12-17T16:32:17.164Z,-3.30
2022-12-17T16:34:44.251Z,-3.30
2022-12-17T16:37:11.305Z,-3.30
2022-12-17T16:39:38.078Z,-3.20
2022-12-17T16:42:07.241Z,-3.30
2022-12-17T16:44:33.817Z,-3.20
2022-12-17T16:47:00.502Z,-3.30
2022-12-17T16:49:27.186Z,-3.40
2022-12-17T16:51:54.745Z,-3.40
2022-12-17T16:54:26.385Z,-3.40
2022-12-17T16:56:55.906Z,-3.40
2022-12-17T16:59:25.255Z,-3.40
2022-12-17T17:01:54.661Z,-3.40
2022-12-17T17:04:22.413Z,-3.50
2022-12-17T17:06:50.849Z,-3.40
2022-12-17T17:09:19.830Z,-3.40
2022-12-17T17:11:51.120Z,-3.50
2022-12-17T17:14:18.273Z,-3.50
2022-12-17T17:16:47.051Z,-3.50
2022-12-17T17:19:19.610Z,-3.50
2022-12-17T17:21:51.803Z,-3.60
2022-12-17T17:24:21.971Z,-3.50
2022-12-17T17:26:52.073Z,-3.50
2022-12-17T17:29:18.850Z,-3.50
2022-12-17T17:34:39.929Z,-3.50
2022-12-17T17:37:08.856Z,-3.60
2022-12-17T17:39:35.509Z,-3.70
2022-12-17T17:42:02.619Z,-3.70
2022-12-17T17:44:29.232Z,-3.70
2022-12-17T17:46:55.936Z,-3.60
2022-12-17T17:49:22.550Z,-3.50
2022-12-17T17:52:08.904Z,-3.50
2022-12-17T17:54:36.302Z,-3.60
2022-12-17T17:57:02.883Z,-3.90
2022-12-17T17:59:33.659Z,-4.00
2022-12-17T18:02:01.214Z,-4.10
2022-12-17T18:04:28.181Z,-4.30
2022-12-17T18:09:41.633Z,-4.20
2022-12-17T18:12:26.926Z,-4.20
2022-12-17T18:17:39.993Z,-3.90
2022-12-17T18:20:06.793Z,-3.80
2022-12-17T18:22:35.458Z,-3.80
2022-12-17T18:25:02.006Z,-3.80
2022-12-17T18:27:28.537Z,-3.80
2022-12-17T18:29:55.114Z,-3.80
2022-12-17T18:32:21.691Z,-3.80
2022-12-17T18:34:48.282Z,-3.80
2022-12-17T18:37:14.897Z,-3.80
2022-12-17T18:39:43.856Z,-3.90
2022-12-17T18:42:28.973Z,-3.90
2022-12-17T18:44:55.522Z,-3.80
2022-12-17T18:47:22.200Z,-3.90
2022-12-17T18:49:48.789Z,-3.90
2022-12-17T18:52:17.284Z,-3.90
2022-12-17T18:54:44.305Z,-3.80
2022-12-17T18:57:10.855Z,-3.90
2022-12-17T18:59:37.536Z,-3.80
2022-12-17T19:02:04.531Z,-3.80
2022-12-17T19:04:33.086Z,-3.70
2022-12-17T19:06:59.808Z,-3.80
2022-12-17T19:09:35.545Z,-3.80
2022-12-17T19:12:03.404Z,-3.80
2022-12-17T19:14:29.969Z,-3.80
2022-12-17T19:16:58.370Z,-3.80
2022-12-17T19:19:25.528Z,-3.80
2022-12-17T19:21:54.816Z,-3.80
2022-12-17T19:24:22.017Z,-3.80
2022-12-17T19:26:49.105Z,-3.70
2022-12-17T19:29:16.740Z,-3.70
2022-12-17T19:31:43.858Z,-3.70
2022-12-17T19:34:11.767Z,-3.70
2022-12-17T19:36:38.794Z,-3.70
2022-12-17T19:39:07.493Z,-3.70
2022-12-17T19:41:36.458Z,-3.70
2022-12-17T19:44:06.343Z,-3.60
2022-12-17T19:46:33.732Z,-3.60
2022-12-17T19:49:00.662Z,-3.60
2022-12-17T19:51:28.153Z,-3.60
2022-12-17T19:53:59.731Z,-3.60
2022-12-17T19:56:33.297Z,-3.50
2022-12-17T19:59:01.975Z,-3.50
2022-12-17T20:01:34.262Z,-3.50
2022-12-17T20:04:01.092Z,-3.60
2022-12-17T20:06:31.102Z,-3.60
2022-12-17T20:09:00.532Z,-3.70
2022-12-17T20:11:36.170Z,-3.90
2022-12-17T20:14:12.022Z,-3.80
2022-12-17T20:16:42.552Z,-3.80
2022-12-17T20:19:11.396Z,-3.80
2022-12-17T20:21:38.141Z,-3.80
2022-12-17T20:24:04.945Z,-3.80
2022-12-17T20:26:31.481Z,-3.70
2022-12-17T20:28:59.072Z,-3.80
2022-12-17T20:31:26.347Z,-3.90
2022-12-17T20:33:55.443Z,-4.10
2022-12-17T20:36:22.667Z,-4.20
2022-12-17T20:38:49.668Z,-4.30
2022-12-17T20:41:20.510Z,-4.20
2022-12-17T20:43:47.466Z,-4.20
2022-12-17T20:46:14.490Z,-4.10
2022-12-17T20:48:42.128Z,-4.00
2022-12-17T20:51:09.590Z,-4.00
2022-12-17T20:53:36.724Z,-3.90
2022-12-17T20:56:07.780Z,-3.90
2022-12-17T20:58:34.573Z,-3.90
2022-12-17T21:01:02.012Z,-3.80
2022-12-17T21:03:28.766Z,-3.80
2022-12-17T21:05:55.348Z,-4.00
2022-12-17T21:08:24.540Z,-4.10
2022-12-17T21:10:55.414Z,-4.30
2022-12-17T21:13:30.633Z,-4.40
2022-12-17T21:16:01.767Z,-4.50
2022-12-17T21:18:30.007Z,-4.60
2022-12-17T21:20:56.538Z,-4.60
2022-12-17T21:23:23.345Z,-4.50
2022-12-17T21:25:57.125Z,-4.40
2022-12-17T21:28:24.911Z,-4.40
2022-12-17T21:30:51.539Z,-4.30
2022-12-17T21:33:18.166Z,-4.40
2022-12-17T21:35:47.275Z,-4.50
2022-12-17T21:38:16.391Z,-4.40
2022-12-17T21:40:45.364Z,-4.30
2022-12-17T21:43:11.965Z,-4.40
2022-12-17T21:45:39.638Z,-4.40
2022-12-17T21:48:11.026Z,-4.50
2022-12-17T21:50:45.177Z,-4.40
2022-12-17T21:53:14.611Z,-4.30
2022-12-17T21:55:42.079Z,-4.30
2022-12-17T21:58:11.332Z,-4.40
2022-12-17T22:00:38.277Z,-4.40
2022-12-17T22:03:04.881Z,-4.40
2022-12-17T22:05:31.496Z,-4.40
2022-12-17T22:08:00.361Z,-4.30
2022-12-17T22:10:41.083Z,-4.30
2022-12-17T22:13:29.943Z,-4.30
2022-12-17T22:15:56.627Z,-4.50
2022-12-17T22:18:26.876Z,-4.60
2022-12-17T22:21:00.659Z,-4.70
2022-12-17T22:23:27.361Z,-4.70
2022-12-17T22:25:56.453Z,-4.80
2022-12-17T22:28:22.986Z,-4.90
2022-12-17T22:31:10.370Z,-5.00
2022-12-17T22:34:15.759Z,-5.00
2022-12-17T22:38:34.718Z,-5.00
2022-12-17T22:43:47.291Z,-5.00
2022-12-17T22:44:36.593Z,-4.90
2022-12-17T22:45:10.014Z,-4.90
2022-12-17T22:47:37.937Z,-5.10
2022-12-17T22:50:04.692Z,-5.10
2022-12-17T22:52:32.015Z,-5.10
2022-12-17T22:54:59.098Z,-5.10
2022-12-17T22:57:37.760Z,-5.00
2022-12-17T23:00:07.611Z,-5.00
2022-12-17T23:02:34.209Z,-4.90
2022-12-17T23:05:00.798Z,-4.90
2022-12-17T23:07:31.770Z,-4.80
2022-12-17T23:09:58.947Z,-4.80
2022-12-17T23:12:43.929Z,-4.80
2022-12-17T23:15:10.647Z,-4.70
2022-12-17T23:17:37.245Z,-4.80
2022-12-17T23:20:03.994Z,-4.80
2022-12-17T23:22:30.547Z,-4.90
2022-12-17T23:24:57.076Z,-4.90
2022-12-17T23:27:25.988Z,-5.00
2022-12-17T23:29:52.549Z,-5.00
2022-12-17T23:32:19.107Z,-5.00
2022-12-17T23:34:45.798Z,-5.00
2022-12-17T23:37:12.346Z,-5.00
2022-12-17T23:39:38.988Z,-5.00
2022-12-17T23:42:05.703Z,-4.90
2022-12-17T23:44:34.694Z,-4.90
2022-12-17T23:47:01.279Z,-4.80
2022-12-17T23:49:30.153Z,-4.80
2022-12-17T23:51:56.723Z,-4.80
2022-12-17T23:54:24.222Z,-4.70
2022-12-17T23:56:50.883Z,-4.80
2022-12-17T23:59:17.450Z,-4.80
